<?xml version="1.0" encoding="UTF-8" standalone="no" ?>
<gpx xmlns="http://www.topografix.com/GPX/1/1" xmlns:xsi="http://www.w3.org/2001/XMLSchema-instance" xsi:schemaLocation="http://www.topografix.com/GPX/1/1 http://www.topografix.com/GPX/1/1/gpx.xsd" version="1.1" creator="VisuGPX - https://www.visugpx.com">
  <metadata>
    <name>marche du 30 juin</name>
    <desc><![CDATA[depart lasserre]]></desc>
  </metadata>
  <trk>
    <name><![CDATA[marche du 30 juin_1]]></name>
    <trkseg>
      <trkpt lat="44.06532" lon="0.39315">
        <ele>93</ele>
        <time>2014-06-24T07:02:59Z</time>
      </trkpt>
      <trkpt lat="44.06553" lon="0.39339">
        <ele>95</ele>
        <time>2014-06-24T07:03:28Z</time>
      </trkpt>
      <trkpt lat="44.06573" lon="0.39366">
        <ele>99</ele>
        <time>2014-06-24T07:03:58Z</time>
      </trkpt>
      <trkpt lat="44.06599" lon="0.39407">
        <ele>103</ele>
        <time>2014-06-24T07:04:29Z</time>
      </trkpt>
      <trkpt lat="44.06619" lon="0.39444">
        <ele>107</ele>
        <time>2014-06-24T07:04:59Z</time>
      </trkpt>
      <trkpt lat="44.06648" lon="0.3947">
        <ele>107</ele>
        <time>2014-06-24T07:05:29Z</time>
      </trkpt>
      <trkpt lat="44.0668" lon="0.39493">
        <ele>113</ele>
        <time>2014-06-24T07:05:59Z</time>
      </trkpt>
      <trkpt lat="44.06694" lon="0.3953">
        <ele>113</ele>
        <time>2014-06-24T07:06:30Z</time>
      </trkpt>
      <trkpt lat="44.06698" lon="0.39574">
        <ele>117</ele>
        <time>2014-06-24T07:07:00Z</time>
      </trkpt>
      <trkpt lat="44.06692" lon="0.39618">
        <ele>117</ele>
        <time>2014-06-24T07:07:30Z</time>
      </trkpt>
      <trkpt lat="44.06692" lon="0.39663">
        <ele>121</ele>
        <time>2014-06-24T07:08:00Z</time>
      </trkpt>
      <trkpt lat="44.06687" lon="0.39707">
        <ele>121</ele>
        <time>2014-06-24T07:08:30Z</time>
      </trkpt>
      <trkpt lat="44.06683" lon="0.39752">
        <ele>121</ele>
        <time>2014-06-24T07:09:01Z</time>
      </trkpt>
      <trkpt lat="44.06679" lon="0.39796">
        <ele>121</ele>
        <time>2014-06-24T07:09:31Z</time>
      </trkpt>
      <trkpt lat="44.06673" lon="0.39842">
        <ele>122</ele>
        <time>2014-06-24T07:10:01Z</time>
      </trkpt>
      <trkpt lat="44.06667" lon="0.39887">
        <ele>122</ele>
        <time>2014-06-24T07:10:32Z</time>
      </trkpt>
      <trkpt lat="44.06662" lon="0.39936">
        <ele>122</ele>
        <time>2014-06-24T07:11:02Z</time>
      </trkpt>
      <trkpt lat="44.06656" lon="0.39995">
        <ele>122</ele>
        <time>2014-06-24T07:11:32Z</time>
      </trkpt>
      <trkpt lat="44.06644" lon="0.40045">
        <ele>122</ele>
        <time>2014-06-24T07:12:02Z</time>
      </trkpt>
      <trkpt lat="44.06647" lon="0.40089">
        <ele>122</ele>
        <time>2014-06-24T07:12:32Z</time>
      </trkpt>
      <trkpt lat="44.06648" lon="0.40137">
        <ele>125</ele>
        <time>2014-06-24T07:13:03Z</time>
      </trkpt>
      <trkpt lat="44.06644" lon="0.40193">
        <ele>125</ele>
        <time>2014-06-24T07:13:33Z</time>
      </trkpt>
      <trkpt lat="44.06646" lon="0.40244">
        <ele>118</ele>
        <time>2014-06-24T07:14:03Z</time>
      </trkpt>
      <trkpt lat="44.06647" lon="0.40292">
        <ele>123</ele>
        <time>2014-06-24T07:14:34Z</time>
      </trkpt>
      <trkpt lat="44.06644" lon="0.40335">
        <ele>118</ele>
        <time>2014-06-24T07:15:04Z</time>
      </trkpt>
      <trkpt lat="44.06638" lon="0.40386">
        <ele>118</ele>
        <time>2014-06-24T07:15:34Z</time>
      </trkpt>
      <trkpt lat="44.06637" lon="0.40436">
        <ele>118</ele>
        <time>2014-06-24T07:16:05Z</time>
      </trkpt>
      <trkpt lat="44.06637" lon="0.40483">
        <ele>116</ele>
        <time>2014-06-24T07:16:35Z</time>
      </trkpt>
      <trkpt lat="44.06628" lon="0.40537">
        <ele>116</ele>
        <time>2014-06-24T07:17:05Z</time>
      </trkpt>
      <trkpt lat="44.06646" lon="0.40569">
        <ele>116</ele>
        <time>2014-06-24T07:17:35Z</time>
      </trkpt>
      <trkpt lat="44.0666" lon="0.40613">
        <ele>111</ele>
        <time>2014-06-24T07:18:06Z</time>
      </trkpt>
      <trkpt lat="44.0668" lon="0.40657">
        <ele>111</ele>
        <time>2014-06-24T07:18:36Z</time>
      </trkpt>
      <trkpt lat="44.06697" lon="0.40708">
        <ele>111</ele>
        <time>2014-06-24T07:19:06Z</time>
      </trkpt>
      <trkpt lat="44.06689" lon="0.40754">
        <ele>111</ele>
        <time>2014-06-24T07:19:36Z</time>
      </trkpt>
      <trkpt lat="44.06679" lon="0.40803">
        <ele>107</ele>
        <time>2014-06-24T07:20:07Z</time>
      </trkpt>
      <trkpt lat="44.06678" lon="0.40848">
        <ele>103</ele>
        <time>2014-06-24T07:20:37Z</time>
      </trkpt>
      <trkpt lat="44.0668" lon="0.40902">
        <ele>98</ele>
        <time>2014-06-24T07:21:07Z</time>
      </trkpt>
      <trkpt lat="44.06686" lon="0.40945">
        <ele>94</ele>
        <time>2014-06-24T07:21:37Z</time>
      </trkpt>
      <trkpt lat="44.06701" lon="0.40993">
        <ele>94</ele>
        <time>2014-06-24T07:22:08Z</time>
      </trkpt>
      <trkpt lat="44.06704" lon="0.41035">
        <ele>88</ele>
        <time>2014-06-24T07:22:38Z</time>
      </trkpt>
      <trkpt lat="44.06708" lon="0.41054">
        <ele>88</ele>
        <time>2014-06-24T07:23:08Z</time>
      </trkpt>
      <trkpt lat="44.06711" lon="0.41074">
        <ele>88</ele>
        <time>2014-06-24T07:23:38Z</time>
      </trkpt>
      <trkpt lat="44.06723" lon="0.41109">
        <ele>84</ele>
        <time>2014-06-24T07:24:08Z</time>
      </trkpt>
      <trkpt lat="44.06733" lon="0.41151">
        <ele>84</ele>
        <time>2014-06-24T07:24:39Z</time>
      </trkpt>
      <trkpt lat="44.06761" lon="0.41196">
        <ele>80</ele>
        <time>2014-06-24T07:25:09Z</time>
      </trkpt>
      <trkpt lat="44.06785" lon="0.41229">
        <ele>80</ele>
        <time>2014-06-24T07:25:39Z</time>
      </trkpt>
      <trkpt lat="44.06791" lon="0.4126">
        <ele>80</ele>
        <time>2014-06-24T07:26:09Z</time>
      </trkpt>
      <trkpt lat="44.06783" lon="0.41309">
        <ele>84</ele>
        <time>2014-06-24T07:26:40Z</time>
      </trkpt>
      <trkpt lat="44.06766" lon="0.41348">
        <ele>84</ele>
        <time>2014-06-24T07:27:10Z</time>
      </trkpt>
      <trkpt lat="44.06746" lon="0.41396">
        <ele>89</ele>
        <time>2014-06-24T07:27:40Z</time>
      </trkpt>
      <trkpt lat="44.06728" lon="0.41441">
        <ele>89</ele>
        <time>2014-06-24T07:28:10Z</time>
      </trkpt>
      <trkpt lat="44.06703" lon="0.41481">
        <ele>89</ele>
        <time>2014-06-24T07:28:40Z</time>
      </trkpt>
      <trkpt lat="44.06695" lon="0.41523">
        <ele>91</ele>
        <time>2014-06-24T07:29:11Z</time>
      </trkpt>
      <trkpt lat="44.06686" lon="0.41558">
        <ele>91</ele>
        <time>2014-06-24T07:29:41Z</time>
      </trkpt>
      <trkpt lat="44.06675" lon="0.41601">
        <ele>95</ele>
        <time>2014-06-24T07:30:11Z</time>
      </trkpt>
      <trkpt lat="44.06665" lon="0.4165">
        <ele>95</ele>
        <time>2014-06-24T07:30:41Z</time>
      </trkpt>
      <trkpt lat="44.06649" lon="0.41697">
        <ele>100</ele>
        <time>2014-06-24T07:31:12Z</time>
      </trkpt>
      <trkpt lat="44.06636" lon="0.41741">
        <ele>100</ele>
        <time>2014-06-24T07:31:42Z</time>
      </trkpt>
      <trkpt lat="44.06628" lon="0.4179">
        <ele>100</ele>
        <time>2014-06-24T07:32:12Z</time>
      </trkpt>
      <trkpt lat="44.06633" lon="0.4184">
        <ele>100</ele>
        <time>2014-06-24T07:32:42Z</time>
      </trkpt>
      <trkpt lat="44.0664" lon="0.41889">
        <ele>94</ele>
        <time>2014-06-24T07:33:13Z</time>
      </trkpt>
      <trkpt lat="44.06642" lon="0.41942">
        <ele>100</ele>
        <time>2014-06-24T07:33:43Z</time>
      </trkpt>
      <trkpt lat="44.06637" lon="0.41995">
        <ele>100</ele>
        <time>2014-06-24T07:34:13Z</time>
      </trkpt>
      <trkpt lat="44.06625" lon="0.4205">
        <ele>102</ele>
        <time>2014-06-24T07:34:43Z</time>
      </trkpt>
      <trkpt lat="44.06614" lon="0.42099">
        <ele>102</ele>
        <time>2014-06-24T07:35:14Z</time>
      </trkpt>
      <trkpt lat="44.06602" lon="0.42146">
        <ele>102</ele>
        <time>2014-06-24T07:35:44Z</time>
      </trkpt>
      <trkpt lat="44.06585" lon="0.42187">
        <ele>102</ele>
        <time>2014-06-24T07:36:14Z</time>
      </trkpt>
      <trkpt lat="44.06564" lon="0.42231">
        <ele>107</ele>
        <time>2014-06-24T07:36:44Z</time>
      </trkpt>
      <trkpt lat="44.06542" lon="0.42274">
        <ele>107</ele>
        <time>2014-06-24T07:37:15Z</time>
      </trkpt>
      <trkpt lat="44.06516" lon="0.42309">
        <ele>107</ele>
        <time>2014-06-24T07:37:45Z</time>
      </trkpt>
      <trkpt lat="44.06496" lon="0.42345">
        <ele>102</ele>
        <time>2014-06-24T07:38:15Z</time>
      </trkpt>
      <trkpt lat="44.06479" lon="0.42384">
        <ele>102</ele>
        <time>2014-06-24T07:38:45Z</time>
      </trkpt>
      <trkpt lat="44.06458" lon="0.42426">
        <ele>102</ele>
        <time>2014-06-24T07:39:15Z</time>
      </trkpt>
      <trkpt lat="44.06437" lon="0.42472">
        <ele>101</ele>
        <time>2014-06-24T07:39:46Z</time>
      </trkpt>
      <trkpt lat="44.06419" lon="0.42521">
        <ele>99</ele>
        <time>2014-06-24T07:40:16Z</time>
      </trkpt>
      <trkpt lat="44.06406" lon="0.42556">
        <ele>99</ele>
        <time>2014-06-24T07:40:46Z</time>
      </trkpt>
      <trkpt lat="44.06389" lon="0.42601">
        <ele>99</ele>
        <time>2014-06-24T07:41:16Z</time>
      </trkpt>
      <trkpt lat="44.06366" lon="0.42632">
        <ele>95</ele>
        <time>2014-06-24T07:41:47Z</time>
      </trkpt>
      <trkpt lat="44.06336" lon="0.42647">
        <ele>95</ele>
        <time>2014-06-24T07:42:17Z</time>
      </trkpt>
      <trkpt lat="44.06315" lon="0.42692">
        <ele>95</ele>
        <time>2014-06-24T07:42:47Z</time>
      </trkpt>
      <trkpt lat="44.06306" lon="0.42745">
        <ele>91</ele>
        <time>2014-06-24T07:43:18Z</time>
      </trkpt>
      <trkpt lat="44.06303" lon="0.4279">
        <ele>95</ele>
        <time>2014-06-24T07:43:48Z</time>
      </trkpt>
      <trkpt lat="44.06296" lon="0.42837">
        <ele>95</ele>
        <time>2014-06-24T07:44:18Z</time>
      </trkpt>
      <trkpt lat="44.06305" lon="0.42891">
        <ele>95</ele>
        <time>2014-06-24T07:44:48Z</time>
      </trkpt>
      <trkpt lat="44.06321" lon="0.42933">
        <ele>95</ele>
        <time>2014-06-24T07:45:19Z</time>
      </trkpt>
      <trkpt lat="44.06339" lon="0.42976">
        <ele>95</ele>
        <time>2014-06-24T07:45:49Z</time>
      </trkpt>
      <trkpt lat="44.06338" lon="0.4303">
        <ele>99</ele>
        <time>2014-06-24T07:46:19Z</time>
      </trkpt>
      <trkpt lat="44.0633" lon="0.43086">
        <ele>99</ele>
        <time>2014-06-24T07:46:50Z</time>
      </trkpt>
      <trkpt lat="44.06322" lon="0.43115">
        <ele>99</ele>
        <time>2014-06-24T07:47:20Z</time>
      </trkpt>
      <trkpt lat="44.06313" lon="0.43167">
        <ele>98</ele>
        <time>2014-06-24T07:47:50Z</time>
      </trkpt>
      <trkpt lat="44.06299" lon="0.43214">
        <ele>98</ele>
        <time>2014-06-24T07:48:20Z</time>
      </trkpt>
      <trkpt lat="44.06256" lon="0.432">
        <ele>98</ele>
        <time>2014-06-24T07:48:50Z</time>
      </trkpt>
      <trkpt lat="44.06219" lon="0.43177">
        <ele>93</ele>
        <time>2014-06-24T07:49:21Z</time>
      </trkpt>
      <trkpt lat="44.06183" lon="0.43188">
        <ele>89</ele>
        <time>2014-06-24T07:49:51Z</time>
      </trkpt>
      <trkpt lat="44.06152" lon="0.43215">
        <ele>89</ele>
        <time>2014-06-24T07:50:21Z</time>
      </trkpt>
      <trkpt lat="44.06143" lon="0.43262">
        <ele>89</ele>
        <time>2014-06-24T07:50:52Z</time>
      </trkpt>
      <trkpt lat="44.06113" lon="0.43274">
        <ele>89</ele>
        <time>2014-06-24T07:51:22Z</time>
      </trkpt>
      <trkpt lat="44.06072" lon="0.43252">
        <ele>86</ele>
        <time>2014-06-24T07:51:52Z</time>
      </trkpt>
      <trkpt lat="44.06038" lon="0.43237">
        <ele>86</ele>
        <time>2014-06-24T07:52:22Z</time>
      </trkpt>
      <trkpt lat="44.06005" lon="0.43221">
        <ele>80</ele>
        <time>2014-06-24T07:52:53Z</time>
      </trkpt>
      <trkpt lat="44.06003" lon="0.4318">
        <ele>80</ele>
        <time>2014-06-24T07:53:23Z</time>
      </trkpt>
      <trkpt lat="44.05981" lon="0.43165">
        <ele>80</ele>
        <time>2014-06-24T07:53:53Z</time>
      </trkpt>
      <trkpt lat="44.05942" lon="0.43154">
        <ele>80</ele>
        <time>2014-06-24T07:54:23Z</time>
      </trkpt>
      <trkpt lat="44.05909" lon="0.4314">
        <ele>87</ele>
        <time>2014-06-24T07:54:54Z</time>
      </trkpt>
      <trkpt lat="44.05888" lon="0.4311">
        <ele>87</ele>
        <time>2014-06-24T07:55:24Z</time>
      </trkpt>
      <trkpt lat="44.05865" lon="0.43082">
        <ele>87</ele>
        <time>2014-06-24T07:55:54Z</time>
      </trkpt>
      <trkpt lat="44.05828" lon="0.43071">
        <ele>89</ele>
        <time>2014-06-24T07:56:25Z</time>
      </trkpt>
      <trkpt lat="44.05797" lon="0.43058">
        <ele>93</ele>
        <time>2014-06-24T07:56:55Z</time>
      </trkpt>
      <trkpt lat="44.05761" lon="0.43044">
        <ele>93</ele>
        <time>2014-06-24T07:57:25Z</time>
      </trkpt>
      <trkpt lat="44.05728" lon="0.43031">
        <ele>97</ele>
        <time>2014-06-24T07:57:56Z</time>
      </trkpt>
      <trkpt lat="44.05695" lon="0.43019">
        <ele>103</ele>
        <time>2014-06-24T07:58:26Z</time>
      </trkpt>
      <trkpt lat="44.05662" lon="0.43004">
        <ele>103</ele>
        <time>2014-06-24T07:58:56Z</time>
      </trkpt>
      <trkpt lat="44.05632" lon="0.42989">
        <ele>107</ele>
        <time>2014-06-24T07:59:26Z</time>
      </trkpt>
      <trkpt lat="44.05596" lon="0.42976">
        <ele>107</ele>
        <time>2014-06-24T07:59:56Z</time>
      </trkpt>
      <trkpt lat="44.05561" lon="0.42964">
        <ele>107</ele>
        <time>2014-06-24T08:00:26Z</time>
      </trkpt>
      <trkpt lat="44.05527" lon="0.42952">
        <ele>102</ele>
        <time>2014-06-24T08:00:57Z</time>
      </trkpt>
      <trkpt lat="44.05493" lon="0.42945">
        <ele>95</ele>
        <time>2014-06-24T08:01:27Z</time>
      </trkpt>
      <trkpt lat="44.05454" lon="0.4295">
        <ele>95</ele>
        <time>2014-06-24T08:01:57Z</time>
      </trkpt>
      <trkpt lat="44.05419" lon="0.42955">
        <ele>91</ele>
        <time>2014-06-24T08:02:28Z</time>
      </trkpt>
      <trkpt lat="44.05381" lon="0.42957">
        <ele>91</ele>
        <time>2014-06-24T08:02:58Z</time>
      </trkpt>
      <trkpt lat="44.05342" lon="0.42956">
        <ele>85</ele>
        <time>2014-06-24T08:03:28Z</time>
      </trkpt>
      <trkpt lat="44.05306" lon="0.42948">
        <ele>85</ele>
        <time>2014-06-24T08:03:58Z</time>
      </trkpt>
      <trkpt lat="44.05271" lon="0.42943">
        <ele>85</ele>
        <time>2014-06-24T08:04:29Z</time>
      </trkpt>
      <trkpt lat="44.05236" lon="0.42959">
        <ele>81</ele>
        <time>2014-06-24T08:04:59Z</time>
      </trkpt>
      <trkpt lat="44.05203" lon="0.42985">
        <ele>81</ele>
        <time>2014-06-24T08:05:29Z</time>
      </trkpt>
      <trkpt lat="44.05168" lon="0.42989">
        <ele>81</ele>
        <time>2014-06-24T08:06:00Z</time>
      </trkpt>
      <trkpt lat="44.0513" lon="0.42986">
        <ele>85</ele>
        <time>2014-06-24T08:06:30Z</time>
      </trkpt>
      <trkpt lat="44.05091" lon="0.42981">
        <ele>85</ele>
        <time>2014-06-24T08:07:00Z</time>
      </trkpt>
      <trkpt lat="44.0505" lon="0.42977">
        <ele>85</ele>
        <time>2014-06-24T08:07:30Z</time>
      </trkpt>
      <trkpt lat="44.05014" lon="0.42978">
        <ele>89</ele>
        <time>2014-06-24T08:08:01Z</time>
      </trkpt>
      <trkpt lat="44.04978" lon="0.42986">
        <ele>89</ele>
        <time>2014-06-24T08:08:31Z</time>
      </trkpt>
      <trkpt lat="44.04937" lon="0.42997">
        <ele>89</ele>
        <time>2014-06-24T08:09:01Z</time>
      </trkpt>
      <trkpt lat="44.04896" lon="0.43009">
        <ele>93</ele>
        <time>2014-06-24T08:09:31Z</time>
      </trkpt>
      <trkpt lat="44.04859" lon="0.43016">
        <ele>93</ele>
        <time>2014-06-24T08:10:02Z</time>
      </trkpt>
      <trkpt lat="44.04819" lon="0.43028">
        <ele>97</ele>
        <time>2014-06-24T08:10:32Z</time>
      </trkpt>
      <trkpt lat="44.0478" lon="0.43038">
        <ele>97</ele>
        <time>2014-06-24T08:11:02Z</time>
      </trkpt>
      <trkpt lat="44.04744" lon="0.4305">
        <ele>102</ele>
        <time>2014-06-24T08:11:33Z</time>
      </trkpt>
      <trkpt lat="44.04727" lon="0.43054">
        <ele>102</ele>
        <time>2014-06-24T08:12:03Z</time>
      </trkpt>
      <trkpt lat="44.04693" lon="0.43062">
        <ele>102</ele>
        <time>2014-06-24T08:12:33Z</time>
      </trkpt>
      <trkpt lat="44.04654" lon="0.43071">
        <ele>94</ele>
        <time>2014-06-24T08:13:03Z</time>
      </trkpt>
      <trkpt lat="44.0464" lon="0.43071">
        <ele>94</ele>
        <time>2014-06-24T08:13:34Z</time>
      </trkpt>
      <trkpt lat="44.04635" lon="0.43072">
        <ele>94</ele>
        <time>2014-06-24T08:14:04Z</time>
      </trkpt>
      <trkpt lat="44.04602" lon="0.43083">
        <ele>88</ele>
        <time>2014-06-24T08:14:34Z</time>
      </trkpt>
      <trkpt lat="44.04567" lon="0.43097">
        <ele>88</ele>
        <time>2014-06-24T08:15:04Z</time>
      </trkpt>
      <trkpt lat="44.04531" lon="0.43111">
        <ele>85</ele>
        <time>2014-06-24T08:15:35Z</time>
      </trkpt>
      <trkpt lat="44.04493" lon="0.43123">
        <ele>81</ele>
        <time>2014-06-24T08:16:05Z</time>
      </trkpt>
      <trkpt lat="44.04465" lon="0.43143">
        <ele>81</ele>
        <time>2014-06-24T08:16:35Z</time>
      </trkpt>
      <trkpt lat="44.04435" lon="0.43162">
        <ele>77</ele>
        <time>2014-06-24T08:17:05Z</time>
      </trkpt>
      <trkpt lat="44.04402" lon="0.43148">
        <ele>82</ele>
        <time>2014-06-24T08:17:36Z</time>
      </trkpt>
      <trkpt lat="44.04367" lon="0.43127">
        <ele>82</ele>
        <time>2014-06-24T08:18:06Z</time>
      </trkpt>
      <trkpt lat="44.04332" lon="0.43117">
        <ele>88</ele>
        <time>2014-06-24T08:18:36Z</time>
      </trkpt>
      <trkpt lat="44.04299" lon="0.43123">
        <ele>88</ele>
        <time>2014-06-24T08:19:07Z</time>
      </trkpt>
      <trkpt lat="44.04261" lon="0.43132">
        <ele>94</ele>
        <time>2014-06-24T08:19:37Z</time>
      </trkpt>
      <trkpt lat="44.04229" lon="0.43137">
        <ele>94</ele>
        <time>2014-06-24T08:20:07Z</time>
      </trkpt>
      <trkpt lat="44.04206" lon="0.43127">
        <ele>86</ele>
        <time>2014-06-24T08:20:38Z</time>
      </trkpt>
      <trkpt lat="44.04192" lon="0.43074">
        <ele>99</ele>
        <time>2014-06-24T08:21:08Z</time>
      </trkpt>
      <trkpt lat="44.04179" lon="0.43027">
        <ele>99</ele>
        <time>2014-06-24T08:21:38Z</time>
      </trkpt>
      <trkpt lat="44.04167" lon="0.42978">
        <ele>98</ele>
        <time>2014-06-24T08:22:08Z</time>
      </trkpt>
      <trkpt lat="44.04153" lon="0.42928">
        <ele>106</ele>
        <time>2014-06-24T08:22:39Z</time>
      </trkpt>
      <trkpt lat="44.04127" lon="0.42896">
        <ele>110</ele>
        <time>2014-06-24T08:23:09Z</time>
      </trkpt>
      <trkpt lat="44.04094" lon="0.42878">
        <ele>110</ele>
        <time>2014-06-24T08:23:39Z</time>
      </trkpt>
      <trkpt lat="44.04083" lon="0.42828">
        <ele>108</ele>
        <time>2014-06-24T08:24:10Z</time>
      </trkpt>
      <trkpt lat="44.04082" lon="0.42769">
        <ele>108</ele>
        <time>2014-06-24T08:24:40Z</time>
      </trkpt>
      <trkpt lat="44.04081" lon="0.42714">
        <ele>110</ele>
        <time>2014-06-24T08:25:10Z</time>
      </trkpt>
      <trkpt lat="44.04078" lon="0.42666">
        <ele>110</ele>
        <time>2014-06-24T08:25:40Z</time>
      </trkpt>
      <trkpt lat="44.04078" lon="0.42612">
        <ele>108</ele>
        <time>2014-06-24T08:26:11Z</time>
      </trkpt>
      <trkpt lat="44.04079" lon="0.42555">
        <ele>108</ele>
        <time>2014-06-24T08:26:41Z</time>
      </trkpt>
      <trkpt lat="44.04079" lon="0.42498">
        <ele>108</ele>
        <time>2014-06-24T08:27:11Z</time>
      </trkpt>
      <trkpt lat="44.04078" lon="0.42443">
        <ele>112</ele>
        <time>2014-06-24T08:27:42Z</time>
      </trkpt>
      <trkpt lat="44.04076" lon="0.42392">
        <ele>112</ele>
        <time>2014-06-24T08:28:12Z</time>
      </trkpt>
      <trkpt lat="44.04076" lon="0.42338">
        <ele>112</ele>
        <time>2014-06-24T08:28:43Z</time>
      </trkpt>
      <trkpt lat="44.04077" lon="0.42285">
        <ele>116</ele>
        <time>2014-06-24T08:29:13Z</time>
      </trkpt>
      <trkpt lat="44.04076" lon="0.42232">
        <ele>116</ele>
        <time>2014-06-24T08:29:43Z</time>
      </trkpt>
      <trkpt lat="44.04076" lon="0.42177">
        <ele>116</ele>
        <time>2014-06-24T08:30:13Z</time>
      </trkpt>
      <trkpt lat="44.04076" lon="0.42122">
        <ele>116</ele>
        <time>2014-06-24T08:30:44Z</time>
      </trkpt>
      <trkpt lat="44.04076" lon="0.42068">
        <ele>115</ele>
        <time>2014-06-24T08:31:14Z</time>
      </trkpt>
      <trkpt lat="44.04075" lon="0.42015">
        <ele>115</ele>
        <time>2014-06-24T08:31:44Z</time>
      </trkpt>
      <trkpt lat="44.04074" lon="0.41977">
        <ele>119</ele>
        <time>2014-06-24T08:32:14Z</time>
      </trkpt>
      <trkpt lat="44.04073" lon="0.41923">
        <ele>119</ele>
        <time>2014-06-24T08:32:45Z</time>
      </trkpt>
      <trkpt lat="44.0407" lon="0.41872">
        <ele>124</ele>
        <time>2014-06-24T08:33:15Z</time>
      </trkpt>
      <trkpt lat="44.04076" lon="0.4182">
        <ele>120</ele>
        <time>2014-06-24T08:33:45Z</time>
      </trkpt>
      <trkpt lat="44.04083" lon="0.41767">
        <ele>120</ele>
        <time>2014-06-24T08:34:15Z</time>
      </trkpt>
      <trkpt lat="44.04086" lon="0.41711">
        <ele>124</ele>
        <time>2014-06-24T08:34:46Z</time>
      </trkpt>
      <trkpt lat="44.04055" lon="0.41679">
        <ele>124</ele>
        <time>2014-06-24T08:35:16Z</time>
      </trkpt>
      <trkpt lat="44.04025" lon="0.41643">
        <ele>120</ele>
        <time>2014-06-24T08:35:46Z</time>
      </trkpt>
      <trkpt lat="44.03997" lon="0.41605">
        <ele>114</ele>
        <time>2014-06-24T08:36:17Z</time>
      </trkpt>
      <trkpt lat="44.03978" lon="0.41564">
        <ele>117</ele>
        <time>2014-06-24T08:36:47Z</time>
      </trkpt>
      <trkpt lat="44.03988" lon="0.41511">
        <ele>117</ele>
        <time>2014-06-24T08:37:17Z</time>
      </trkpt>
      <trkpt lat="44.04007" lon="0.41462">
        <ele>121</ele>
        <time>2014-06-24T08:37:47Z</time>
      </trkpt>
      <trkpt lat="44.04024" lon="0.41413">
        <ele>125</ele>
        <time>2014-06-24T08:38:17Z</time>
      </trkpt>
      <trkpt lat="44.04032" lon="0.41359">
        <ele>118</ele>
        <time>2014-06-24T08:38:48Z</time>
      </trkpt>
      <trkpt lat="44.04041" lon="0.41306">
        <ele>128</ele>
        <time>2014-06-24T08:39:18Z</time>
      </trkpt>
      <trkpt lat="44.04052" lon="0.41256">
        <ele>128</ele>
        <time>2014-06-24T08:39:48Z</time>
      </trkpt>
      <trkpt lat="44.04067" lon="0.41206">
        <ele>129</ele>
        <time>2014-06-24T08:40:19Z</time>
      </trkpt>
      <trkpt lat="44.04084" lon="0.41155">
        <ele>129</ele>
        <time>2014-06-24T08:40:49Z</time>
      </trkpt>
      <trkpt lat="44.04101" lon="0.4111">
        <ele>129</ele>
        <time>2014-06-24T08:41:19Z</time>
      </trkpt>
      <trkpt lat="44.04121" lon="0.4106">
        <ele>129</ele>
        <time>2014-06-24T08:41:50Z</time>
      </trkpt>
      <trkpt lat="44.0413" lon="0.41006">
        <ele>125</ele>
        <time>2014-06-24T08:42:20Z</time>
      </trkpt>
      <trkpt lat="44.04138" lon="0.40952">
        <ele>132</ele>
        <time>2014-06-24T08:42:50Z</time>
      </trkpt>
      <trkpt lat="44.04147" lon="0.409">
        <ele>132</ele>
        <time>2014-06-24T08:43:20Z</time>
      </trkpt>
      <trkpt lat="44.0416" lon="0.40846">
        <ele>132</ele>
        <time>2014-06-24T08:43:51Z</time>
      </trkpt>
      <trkpt lat="44.04177" lon="0.408">
        <ele>139</ele>
        <time>2014-06-24T08:44:21Z</time>
      </trkpt>
      <trkpt lat="44.04188" lon="0.40762">
        <ele>139</ele>
        <time>2014-06-24T08:44:51Z</time>
      </trkpt>
      <trkpt lat="44.04188" lon="0.40762">
        <ele>139</ele>
        <time>2014-06-24T08:45:21Z</time>
      </trkpt>
      <trkpt lat="44.0418" lon="0.40763">
        <ele>139</ele>
        <time>2014-06-24T08:45:51Z</time>
      </trkpt>
      <trkpt lat="44.04181" lon="0.40763">
        <ele>139</ele>
        <time>2014-06-24T08:46:22Z</time>
      </trkpt>
      <trkpt lat="44.04178" lon="0.40762">
        <ele>139</ele>
        <time>2014-06-24T08:46:52Z</time>
      </trkpt>
      <trkpt lat="44.04179" lon="0.40762">
        <ele>137</ele>
        <time>2014-06-24T08:47:22Z</time>
      </trkpt>
      <trkpt lat="44.04178" lon="0.4076">
        <ele>137</ele>
        <time>2014-06-24T08:47:52Z</time>
      </trkpt>
      <trkpt lat="44.04179" lon="0.4076">
        <ele>137</ele>
        <time>2014-06-24T08:48:22Z</time>
      </trkpt>
      <trkpt lat="44.04179" lon="0.40763">
        <ele>137</ele>
        <time>2014-06-24T08:48:52Z</time>
      </trkpt>
      <trkpt lat="44.04178" lon="0.40764">
        <ele>137</ele>
        <time>2014-06-24T08:49:23Z</time>
      </trkpt>
      <trkpt lat="44.04179" lon="0.40764">
        <ele>138</ele>
        <time>2014-06-24T08:49:53Z</time>
      </trkpt>
      <trkpt lat="44.04189" lon="0.40742">
        <ele>130</ele>
        <time>2014-06-24T08:50:23Z</time>
      </trkpt>
      <trkpt lat="44.04196" lon="0.40685">
        <ele>135</ele>
        <time>2014-06-24T08:50:53Z</time>
      </trkpt>
      <trkpt lat="44.04203" lon="0.40627">
        <ele>139</ele>
        <time>2014-06-24T08:51:24Z</time>
      </trkpt>
      <trkpt lat="44.04204" lon="0.40573">
        <ele>137</ele>
        <time>2014-06-24T08:51:54Z</time>
      </trkpt>
      <trkpt lat="44.04206" lon="0.40514">
        <ele>137</ele>
        <time>2014-06-24T08:52:24Z</time>
      </trkpt>
      <trkpt lat="44.04209" lon="0.40459">
        <ele>137</ele>
        <time>2014-06-24T08:52:55Z</time>
      </trkpt>
      <trkpt lat="44.0422" lon="0.40407">
        <ele>133</ele>
        <time>2014-06-24T08:53:25Z</time>
      </trkpt>
      <trkpt lat="44.04235" lon="0.4036">
        <ele>137</ele>
        <time>2014-06-24T08:53:55Z</time>
      </trkpt>
      <trkpt lat="44.0425" lon="0.40303">
        <ele>137</ele>
        <time>2014-06-24T08:54:25Z</time>
      </trkpt>
      <trkpt lat="44.04265" lon="0.40251">
        <ele>137</ele>
        <time>2014-06-24T08:54:55Z</time>
      </trkpt>
      <trkpt lat="44.04278" lon="0.40197">
        <ele>141</ele>
        <time>2014-06-24T08:55:26Z</time>
      </trkpt>
      <trkpt lat="44.04287" lon="0.40138">
        <ele>128</ele>
        <time>2014-06-24T08:55:56Z</time>
      </trkpt>
      <trkpt lat="44.04295" lon="0.40084">
        <ele>140</ele>
        <time>2014-06-24T08:56:26Z</time>
      </trkpt>
      <trkpt lat="44.04284" lon="0.40035">
        <ele>135</ele>
        <time>2014-06-24T08:56:57Z</time>
      </trkpt>
      <trkpt lat="44.04285" lon="0.39986">
        <ele>131</ele>
        <time>2014-06-24T08:57:27Z</time>
      </trkpt>
      <trkpt lat="44.04316" lon="0.39955">
        <ele>130</ele>
        <time>2014-06-24T08:57:57Z</time>
      </trkpt>
      <trkpt lat="44.04349" lon="0.39928">
        <ele>125</ele>
        <time>2014-06-24T08:58:27Z</time>
      </trkpt>
      <trkpt lat="44.0439" lon="0.39925">
        <ele>120</ele>
        <time>2014-06-24T08:58:57Z</time>
      </trkpt>
      <trkpt lat="44.04426" lon="0.39929">
        <ele>120</ele>
        <time>2014-06-24T08:59:28Z</time>
      </trkpt>
      <trkpt lat="44.04465" lon="0.39932">
        <ele>120</ele>
        <time>2014-06-24T08:59:58Z</time>
      </trkpt>
      <trkpt lat="44.04499" lon="0.39937">
        <ele>112</ele>
        <time>2014-06-24T09:00:28Z</time>
      </trkpt>
      <trkpt lat="44.04535" lon="0.39936">
        <ele>108</ele>
        <time>2014-06-24T09:00:59Z</time>
      </trkpt>
      <trkpt lat="44.04571" lon="0.39918">
        <ele>108</ele>
        <time>2014-06-24T09:01:29Z</time>
      </trkpt>
      <trkpt lat="44.04608" lon="0.399">
        <ele>102</ele>
        <time>2014-06-24T09:01:59Z</time>
      </trkpt>
      <trkpt lat="44.04642" lon="0.39884">
        <ele>102</ele>
        <time>2014-06-24T09:02:29Z</time>
      </trkpt>
      <trkpt lat="44.0468" lon="0.39865">
        <ele>98</ele>
        <time>2014-06-24T09:03:00Z</time>
      </trkpt>
      <trkpt lat="44.04696" lon="0.39897">
        <ele>94</ele>
        <time>2014-06-24T09:03:30Z</time>
      </trkpt>
      <trkpt lat="44.04716" lon="0.39932">
        <ele>89</ele>
        <time>2014-06-24T09:04:00Z</time>
      </trkpt>
      <trkpt lat="44.04746" lon="0.39968">
        <ele>83</ele>
        <time>2014-06-24T09:04:30Z</time>
      </trkpt>
      <trkpt lat="44.04773" lon="0.40004">
        <ele>83</ele>
        <time>2014-06-24T09:05:01Z</time>
      </trkpt>
      <trkpt lat="44.04801" lon="0.40046">
        <ele>88</ele>
        <time>2014-06-24T09:05:31Z</time>
      </trkpt>
      <trkpt lat="44.04829" lon="0.40088">
        <ele>92</ele>
        <time>2014-06-24T09:06:01Z</time>
      </trkpt>
      <trkpt lat="44.04849" lon="0.40133">
        <ele>86</ele>
        <time>2014-06-24T09:06:31Z</time>
      </trkpt>
      <trkpt lat="44.04873" lon="0.40177">
        <ele>86</ele>
        <time>2014-06-24T09:07:02Z</time>
      </trkpt>
      <trkpt lat="44.04896" lon="0.40221">
        <ele>86</ele>
        <time>2014-06-24T09:07:32Z</time>
      </trkpt>
      <trkpt lat="44.04918" lon="0.40265">
        <ele>85</ele>
        <time>2014-06-24T09:08:02Z</time>
      </trkpt>
      <trkpt lat="44.04941" lon="0.40309">
        <ele>85</ele>
        <time>2014-06-24T09:08:32Z</time>
      </trkpt>
      <trkpt lat="44.04966" lon="0.40353">
        <ele>85</ele>
        <time>2014-06-24T09:09:03Z</time>
      </trkpt>
      <trkpt lat="44.04992" lon="0.40391">
        <ele>84</ele>
        <time>2014-06-24T09:09:33Z</time>
      </trkpt>
      <trkpt lat="44.05012" lon="0.40435">
        <ele>82</ele>
        <time>2014-06-24T09:10:03Z</time>
      </trkpt>
      <trkpt lat="44.0501" lon="0.40487">
        <ele>78</ele>
        <time>2014-06-24T09:10:33Z</time>
      </trkpt>
      <trkpt lat="44.05014" lon="0.40532">
        <ele>74</ele>
        <time>2014-06-24T09:11:03Z</time>
      </trkpt>
      <trkpt lat="44.05013" lon="0.40578">
        <ele>74</ele>
        <time>2014-06-24T09:11:34Z</time>
      </trkpt>
      <trkpt lat="44.05022" lon="0.40619">
        <ele>67</ele>
        <time>2014-06-24T09:12:04Z</time>
      </trkpt>
      <trkpt lat="44.05038" lon="0.40667">
        <ele>67</ele>
        <time>2014-06-24T09:12:34Z</time>
      </trkpt>
      <trkpt lat="44.05057" lon="0.40703">
        <ele>62</ele>
        <time>2014-06-24T09:13:04Z</time>
      </trkpt>
      <trkpt lat="44.05084" lon="0.40741">
        <ele>66</ele>
        <time>2014-06-24T09:13:34Z</time>
      </trkpt>
      <trkpt lat="44.05104" lon="0.40781">
        <ele>71</ele>
        <time>2014-06-24T09:14:05Z</time>
      </trkpt>
      <trkpt lat="44.05114" lon="0.40823">
        <ele>70</ele>
        <time>2014-06-24T09:14:35Z</time>
      </trkpt>
      <trkpt lat="44.05113" lon="0.40865">
        <ele>70</ele>
        <time>2014-06-24T09:15:05Z</time>
      </trkpt>
      <trkpt lat="44.05116" lon="0.40918">
        <ele>70</ele>
        <time>2014-06-24T09:15:35Z</time>
      </trkpt>
      <trkpt lat="44.05119" lon="0.40973">
        <ele>70</ele>
        <time>2014-06-24T09:16:06Z</time>
      </trkpt>
      <trkpt lat="44.05127" lon="0.4102">
        <ele>67</ele>
        <time>2014-06-24T09:16:36Z</time>
      </trkpt>
      <trkpt lat="44.0513" lon="0.41063">
        <ele>74</ele>
        <time>2014-06-24T09:17:06Z</time>
      </trkpt>
      <trkpt lat="44.05148" lon="0.41104">
        <ele>84</ele>
        <time>2014-06-24T09:17:36Z</time>
      </trkpt>
      <trkpt lat="44.05169" lon="0.41136">
        <ele>88</ele>
        <time>2014-06-24T09:18:07Z</time>
      </trkpt>
      <trkpt lat="44.0519" lon="0.41169">
        <ele>84</ele>
        <time>2014-06-24T09:18:37Z</time>
      </trkpt>
      <trkpt lat="44.05213" lon="0.41205">
        <ele>89</ele>
        <time>2014-06-24T09:19:07Z</time>
      </trkpt>
      <trkpt lat="44.05233" lon="0.41241">
        <ele>93</ele>
        <time>2014-06-24T09:19:37Z</time>
      </trkpt>
      <trkpt lat="44.05242" lon="0.41263">
        <ele>91</ele>
        <time>2014-06-24T09:20:08Z</time>
      </trkpt>
      <trkpt lat="44.05256" lon="0.413">
        <ele>98</ele>
        <time>2014-06-24T09:20:38Z</time>
      </trkpt>
      <trkpt lat="44.05276" lon="0.41337">
        <ele>104</ele>
        <time>2014-06-24T09:21:08Z</time>
      </trkpt>
      <trkpt lat="44.05297" lon="0.41376">
        <ele>104</ele>
        <time>2014-06-24T09:21:38Z</time>
      </trkpt>
      <trkpt lat="44.05315" lon="0.41414">
        <ele>108</ele>
        <time>2014-06-24T09:22:09Z</time>
      </trkpt>
      <trkpt lat="44.05335" lon="0.41383">
        <ele>108</ele>
        <time>2014-06-24T09:22:39Z</time>
      </trkpt>
      <trkpt lat="44.05358" lon="0.41344">
        <ele>103</ele>
        <time>2014-06-24T09:23:09Z</time>
      </trkpt>
      <trkpt lat="44.05385" lon="0.4131">
        <ele>103</ele>
        <time>2014-06-24T09:23:39Z</time>
      </trkpt>
      <trkpt lat="44.05408" lon="0.41269">
        <ele>103</ele>
        <time>2014-06-24T09:24:10Z</time>
      </trkpt>
      <trkpt lat="44.0543" lon="0.41236">
        <ele>107</ele>
        <time>2014-06-24T09:24:40Z</time>
      </trkpt>
      <trkpt lat="44.0545" lon="0.41206">
        <ele>107</ele>
        <time>2014-06-24T09:25:10Z</time>
      </trkpt>
      <trkpt lat="44.05482" lon="0.41177">
        <ele>103</ele>
        <time>2014-06-24T09:25:40Z</time>
      </trkpt>
      <trkpt lat="44.0551" lon="0.41147">
        <ele>108</ele>
        <time>2014-06-24T09:26:11Z</time>
      </trkpt>
      <trkpt lat="44.05531" lon="0.4111">
        <ele>108</ele>
        <time>2014-06-24T09:26:41Z</time>
      </trkpt>
      <trkpt lat="44.05542" lon="0.41096">
        <ele>112</ele>
        <time>2014-06-24T09:27:11Z</time>
      </trkpt>
      <trkpt lat="44.05567" lon="0.4109">
        <ele>116</ele>
        <time>2014-06-24T09:27:41Z</time>
      </trkpt>
      <trkpt lat="44.056" lon="0.41109">
        <ele>116</ele>
        <time>2014-06-24T09:28:12Z</time>
      </trkpt>
      <trkpt lat="44.05615" lon="0.41089">
        <ele>116</ele>
        <time>2014-06-24T09:28:42Z</time>
      </trkpt>
      <trkpt lat="44.05613" lon="0.41039">
        <ele>113</ele>
        <time>2014-06-24T09:29:12Z</time>
      </trkpt>
      <trkpt lat="44.05621" lon="0.40993">
        <ele>113</ele>
        <time>2014-06-24T09:29:42Z</time>
      </trkpt>
      <trkpt lat="44.05634" lon="0.40946">
        <ele>109</ele>
        <time>2014-06-24T09:30:13Z</time>
      </trkpt>
      <trkpt lat="44.05637" lon="0.40925">
        <ele>105</ele>
        <time>2014-06-24T09:30:43Z</time>
      </trkpt>
      <trkpt lat="44.05639" lon="0.40923">
        <ele>105</ele>
        <time>2014-06-24T09:31:13Z</time>
      </trkpt>
      <trkpt lat="44.0564" lon="0.40917">
        <ele>106</ele>
        <time>2014-06-24T09:31:44Z</time>
      </trkpt>
      <trkpt lat="44.05646" lon="0.40916">
        <ele>106</ele>
        <time>2014-06-24T09:32:14Z</time>
      </trkpt>
      <trkpt lat="44.05641" lon="0.40886">
        <ele>105</ele>
        <time>2014-06-24T09:32:44Z</time>
      </trkpt>
      <trkpt lat="44.0564" lon="0.40842">
        <ele>101</ele>
        <time>2014-06-24T09:33:14Z</time>
      </trkpt>
      <trkpt lat="44.05645" lon="0.40794">
        <ele>97</ele>
        <time>2014-06-24T09:33:45Z</time>
      </trkpt>
      <trkpt lat="44.05664" lon="0.40752">
        <ele>97</ele>
        <time>2014-06-24T09:34:15Z</time>
      </trkpt>
      <trkpt lat="44.05685" lon="0.40722">
        <ele>101</ele>
        <time>2014-06-24T09:34:45Z</time>
      </trkpt>
      <trkpt lat="44.05693" lon="0.40692">
        <ele>101</ele>
        <time>2014-06-24T09:35:15Z</time>
      </trkpt>
      <trkpt lat="44.05699" lon="0.40644">
        <ele>101</ele>
        <time>2014-06-24T09:35:45Z</time>
      </trkpt>
      <trkpt lat="44.05706" lon="0.40596">
        <ele>101</ele>
        <time>2014-06-24T09:36:16Z</time>
      </trkpt>
      <trkpt lat="44.05709" lon="0.40549">
        <ele>101</ele>
        <time>2014-06-24T09:36:46Z</time>
      </trkpt>
      <trkpt lat="44.05715" lon="0.40502">
        <ele>96</ele>
        <time>2014-06-24T09:37:16Z</time>
      </trkpt>
      <trkpt lat="44.05729" lon="0.40462">
        <ele>96</ele>
        <time>2014-06-24T09:37:47Z</time>
      </trkpt>
      <trkpt lat="44.05739" lon="0.40421">
        <ele>100</ele>
        <time>2014-06-24T09:38:17Z</time>
      </trkpt>
      <trkpt lat="44.05755" lon="0.40384">
        <ele>96</ele>
        <time>2014-06-24T09:38:47Z</time>
      </trkpt>
      <trkpt lat="44.0577" lon="0.40341">
        <ele>96</ele>
        <time>2014-06-24T09:39:17Z</time>
      </trkpt>
      <trkpt lat="44.05785" lon="0.40298">
        <ele>92</ele>
        <time>2014-06-24T09:39:48Z</time>
      </trkpt>
      <trkpt lat="44.05795" lon="0.40255">
        <ele>84</ele>
        <time>2014-06-24T09:40:18Z</time>
      </trkpt>
      <trkpt lat="44.05805" lon="0.40209">
        <ele>91</ele>
        <time>2014-06-24T09:40:48Z</time>
      </trkpt>
      <trkpt lat="44.05816" lon="0.4016">
        <ele>91</ele>
        <time>2014-06-24T09:41:18Z</time>
      </trkpt>
      <trkpt lat="44.05832" lon="0.40112">
        <ele>91</ele>
        <time>2014-06-24T09:41:49Z</time>
      </trkpt>
      <trkpt lat="44.05858" lon="0.40073">
        <ele>92</ele>
        <time>2014-06-24T09:42:19Z</time>
      </trkpt>
      <trkpt lat="44.05894" lon="0.4005">
        <ele>92</ele>
        <time>2014-06-24T09:42:49Z</time>
      </trkpt>
      <trkpt lat="44.05928" lon="0.40027">
        <ele>87</ele>
        <time>2014-06-24T09:43:20Z</time>
      </trkpt>
      <trkpt lat="44.05956" lon="0.39997">
        <ele>83</ele>
        <time>2014-06-24T09:43:50Z</time>
      </trkpt>
      <trkpt lat="44.05979" lon="0.39959">
        <ele>83</ele>
        <time>2014-06-24T09:44:20Z</time>
      </trkpt>
      <trkpt lat="44.05994" lon="0.39916">
        <ele>79</ele>
        <time>2014-06-24T09:44:51Z</time>
      </trkpt>
      <trkpt lat="44.06007" lon="0.39866">
        <ele>78</ele>
        <time>2014-06-24T09:45:21Z</time>
      </trkpt>
      <trkpt lat="44.06016" lon="0.39814">
        <ele>73</ele>
        <time>2014-06-24T09:45:51Z</time>
      </trkpt>
      <trkpt lat="44.06019" lon="0.39768">
        <ele>73</ele>
        <time>2014-06-24T09:46:21Z</time>
      </trkpt>
      <trkpt lat="44.0602" lon="0.39718">
        <ele>69</ele>
        <time>2014-06-24T09:46:52Z</time>
      </trkpt>
      <trkpt lat="44.06019" lon="0.39671">
        <ele>64</ele>
        <time>2014-06-24T09:47:22Z</time>
      </trkpt>
      <trkpt lat="44.06013" lon="0.3962">
        <ele>60</ele>
        <time>2014-06-24T09:47:52Z</time>
      </trkpt>
      <trkpt lat="44.06007" lon="0.39577">
        <ele>60</ele>
        <time>2014-06-24T09:48:22Z</time>
      </trkpt>
      <trkpt lat="44.06005" lon="0.39526">
        <ele>56</ele>
        <time>2014-06-24T09:48:53Z</time>
      </trkpt>
      <trkpt lat="44.0602" lon="0.39486">
        <ele>56</ele>
        <time>2014-06-24T09:49:23Z</time>
      </trkpt>
      <trkpt lat="44.06057" lon="0.39469">
        <ele>51</ele>
        <time>2014-06-24T09:49:53Z</time>
      </trkpt>
      <trkpt lat="44.06097" lon="0.39468">
        <ele>55</ele>
        <time>2014-06-24T09:50:23Z</time>
      </trkpt>
      <trkpt lat="44.06136" lon="0.39469">
        <ele>55</ele>
        <time>2014-06-24T09:50:53Z</time>
      </trkpt>
      <trkpt lat="44.0617" lon="0.39487">
        <ele>61</ele>
        <time>2014-06-24T09:51:24Z</time>
      </trkpt>
      <trkpt lat="44.06197" lon="0.39522">
        <ele>66</ele>
        <time>2014-06-24T09:51:54Z</time>
      </trkpt>
      <trkpt lat="44.0623" lon="0.39535">
        <ele>66</ele>
        <time>2014-06-24T09:52:24Z</time>
      </trkpt>
      <trkpt lat="44.06263" lon="0.39515">
        <ele>70</ele>
        <time>2014-06-24T09:52:54Z</time>
      </trkpt>
      <trkpt lat="44.06283" lon="0.39481">
        <ele>74</ele>
        <time>2014-06-24T09:53:25Z</time>
      </trkpt>
      <trkpt lat="44.06286" lon="0.39436">
        <ele>74</ele>
        <time>2014-06-24T09:53:55Z</time>
      </trkpt>
      <trkpt lat="44.06301" lon="0.3941">
        <ele>78</ele>
        <time>2014-06-24T09:54:25Z</time>
      </trkpt>
      <trkpt lat="44.06329" lon="0.39437">
        <ele>78</ele>
        <time>2014-06-24T09:54:55Z</time>
      </trkpt>
      <trkpt lat="44.06327" lon="0.39393">
        <ele>85</ele>
        <time>2014-06-24T09:55:25Z</time>
      </trkpt>
      <trkpt lat="44.0632" lon="0.3935">
        <ele>85</ele>
        <time>2014-06-24T09:55:56Z</time>
      </trkpt>
      <trkpt lat="44.06339" lon="0.39317">
        <ele>85</ele>
        <time>2014-06-24T09:56:26Z</time>
      </trkpt>
      <trkpt lat="44.06369" lon="0.39318">
        <ele>89</ele>
        <time>2014-06-24T09:56:56Z</time>
      </trkpt>
      <trkpt lat="44.06406" lon="0.39325">
        <ele>89</ele>
        <time>2014-06-24T09:57:26Z</time>
      </trkpt>
      <trkpt lat="44.0645" lon="0.39327">
        <ele>94</ele>
        <time>2014-06-24T09:57:57Z</time>
      </trkpt>
      <trkpt lat="44.06488" lon="0.39317">
        <ele>94</ele>
        <time>2014-06-24T09:58:27Z</time>
      </trkpt>
      <trkpt lat="44.0652" lon="0.39297">
        <ele>94</ele>
        <time>2014-06-24T09:58:57Z</time>
      </trkpt>
    </trkseg>
  </trk>
</gpx>